createdAt,value
2019-01-28T00:00:00.262Z,985.2
2019-01-28T00:05:00.019Z,985.2
2019-01-28T00:10:00.292Z,985.2
2019-01-28T00:15:00.309Z,985.2
2019-01-28T00:20:00.356Z,985.2
2019-01-28T00:25:00.005Z,985.4
2019-01-28T00:30:00.388Z,985.4
2019-01-28T00:35:00.006Z,985.4
2019-01-28T00:40:00.279Z,985.5
2019-01-28T00:45:00.251Z,985.5
2019-01-28T00:50:00.322Z,985.6
2019-01-28T00:55:00.295Z,985.6
2019-01-28T01:00:00.201Z,985.6
2019-01-28T01:05:00.285Z,985.7
2019-01-28T01:10:00.304Z,985.7
2019-01-28T01:14:59.998Z,985.9
2019-01-28T01:20:00.022Z,985.9
2019-01-28T01:25:00.356Z,986
2019-01-28T01:30:00.205Z,986
2019-01-28T01:34:59.945Z,986.1
2019-01-28T01:39:59.917Z,986.1
2019-01-28T01:45:00.191Z,986.1
2019-01-28T01:50:00.215Z,986.2
2019-01-28T01:54:59.966Z,986.3
2019-01-28T02:00:00.138Z,986.4
2019-01-28T02:05:00.236Z,986.4
2019-01-28T02:10:00.259Z,986.4
2019-01-28T02:15:00.192Z,986.5
2019-01-28T02:19:59.990Z,986.6
2019-01-28T02:25:00.256Z,986.6
2019-01-28T02:30:00.022Z,986.6
2019-01-28T02:34:59.958Z,986.6
2019-01-28T02:39:59.851Z,986.7
2019-01-28T02:44:59.959Z,986.8
2019-01-28T02:49:59.800Z,986.8
2019-01-28T02:55:00.217Z,986.8
2019-01-28T02:59:59.832Z,986.8
2019-01-28T03:04:59.804Z,986.8
2019-01-28T03:09:59.911Z,986.8
2019-01-28T03:14:59.787Z,987
2019-01-28T03:19:59.898Z,986.9
2019-01-28T03:25:00.303Z,987
2019-01-28T03:29:59.888Z,987
2019-01-28T03:34:59.858Z,987.2
2019-01-28T03:40:00.225Z,987.2
2019-01-28T03:44:59.827Z,987.3
2019-01-28T03:49:59.693Z,987.3
2019-01-28T03:54:59.943Z,987.3
2019-01-28T03:59:59.707Z,987.4
2019-01-28T04:04:59.802Z,987.5
2019-01-28T04:09:59.745Z,987.6
2019-01-28T04:14:59.840Z,987.6
2019-01-28T04:19:59.734Z,987.6
2019-01-28T04:24:59.763Z,987.6
2019-01-28T04:29:59.734Z,987.8
2019-01-28T04:34:59.744Z,987.8
2019-01-28T04:39:59.650Z,987.9
2019-01-28T04:44:59.641Z,988
2019-01-28T04:49:59.634Z,988
2019-01-28T04:54:59.622Z,988.1
2019-01-28T05:00:00.033Z,988.2
2019-01-28T05:04:59.872Z,988.2
2019-01-28T05:09:59.596Z,988.3
2019-01-28T05:14:59.926Z,988.4
2019-01-28T05:19:59.682Z,988.5
2019-01-28T05:24:59.727Z,988.6
2019-01-28T05:29:59.958Z,988.6
2019-01-28T05:34:59.614Z,988.7
2019-01-28T05:39:59.951Z,988.7
2019-01-28T05:44:59.699Z,988.8
2019-01-28T05:49:59.678Z,988.9
2019-01-28T05:54:59.693Z,989
2019-01-28T05:59:59.852Z,989.1
2019-01-28T06:04:59.791Z,989.3
2019-01-28T06:09:59.769Z,989.4
2019-01-28T06:14:59.691Z,989.7
2019-01-28T06:19:59.906Z,989.7
2019-01-28T06:24:59.713Z,989.8
2019-01-28T06:29:59.683Z,990
2019-01-28T06:34:59.580Z,990.1
2019-01-28T06:39:59.802Z,990.4
2019-01-28T06:44:59.609Z,990.5
2019-01-28T06:49:59.806Z,990.6
2019-01-28T06:54:59.676Z,990.7
2019-01-28T06:59:59.837Z,990.9
2019-01-28T07:04:59.628Z,991
2019-01-28T07:09:59.715Z,991.3
2019-01-28T07:14:59.629Z,991.3
2019-01-28T07:19:59.474Z,991.5
2019-01-28T07:24:59.732Z,991.6
2019-01-28T07:29:59.637Z,991.8
2019-01-28T07:34:59.395Z,992
2019-01-28T07:39:59.622Z,992.1
2019-01-28T07:44:59.579Z,992.2
2019-01-28T07:49:59.731Z,992.4
2019-01-28T07:54:59.729Z,992.5
2019-01-28T07:59:59.866Z,992.6
2019-01-28T08:04:59.543Z,992.8
2019-01-28T08:09:59.711Z,992.9
2019-01-28T08:14:59.786Z,993
2019-01-28T08:19:59.449Z,993.1
2019-01-28T08:24:59.301Z,993.2
2019-01-28T08:29:59.634Z,993.3
2019-01-28T08:34:59.319Z,993.5
2019-01-28T08:39:59.588Z,993.6
2019-01-28T08:44:59.645Z,993.7
2019-01-28T08:49:59.507Z,993.8
2019-01-28T08:54:59.421Z,994.1
2019-01-28T08:59:59.451Z,994.1
2019-01-28T09:04:59.658Z,994.2
2019-01-28T09:09:59.403Z,994.3
2019-01-28T09:14:59.375Z,994.4
2019-01-28T09:19:59.539Z,994.5
2019-01-28T09:24:59.601Z,994.6
2019-01-28T09:35:00.543Z,994.9
2019-01-28T09:39:59.459Z,995
2019-01-28T09:44:59.288Z,995.1
2019-01-28T09:49:59.404Z,995.3
2019-01-28T09:54:59.493Z,995.4
2019-01-28T09:59:59.284Z,995.5
2019-01-28T10:04:59.381Z,995.6
2019-01-28T10:09:59.499Z,995.6
2019-01-28T10:14:59.272Z,995.7
2019-01-28T10:19:59.359Z,995.9
2019-01-28T10:24:59.489Z,996
2019-01-28T10:29:59.142Z,996
2019-01-28T10:34:59.331Z,996.2
2019-01-28T10:39:59.439Z,996.2
2019-01-28T10:44:59.176Z,996.4
2019-01-28T10:49:59.239Z,996.4
2019-01-28T10:54:59.416Z,996.4
2019-01-28T10:59:59.130Z,996.6
2019-01-28T11:20:08.846Z,997
2019-01-28T11:25:02.195Z,997.1
2019-01-28T11:30:02.344Z,997.3
2019-01-28T11:35:02.065Z,997.3
2019-01-28T11:40:02.226Z,997.4
2019-01-28T11:45:01.873Z,997.4
2019-01-28T11:50:01.862Z,997.5
2019-01-28T11:55:01.911Z,997.8
2019-01-28T12:00:02.364Z,997.7
2019-01-28T12:05:01.835Z,997.7
2019-01-28T12:10:01.990Z,997.9
2019-01-28T12:15:02.078Z,998.1
2019-01-28T12:20:01.721Z,998.2
2019-01-28T12:25:02.001Z,998.3
2019-01-28T12:30:02.379Z,998.3
2019-01-28T12:36:19.157Z,998.5
2019-01-28T12:40:01.717Z,998.5
2019-01-28T12:45:51.285Z,998.6
2019-01-28T12:50:01.990Z,998.6
2019-01-28T12:55:01.909Z,998.7
2019-01-28T13:00:02.000Z,998.8
2019-01-28T13:05:01.649Z,999
2019-01-28T13:10:02.061Z,999
2019-01-28T13:15:01.915Z,999
2019-01-28T13:20:01.675Z,999.1
2019-01-28T13:25:01.722Z,999.1
2019-01-28T13:30:01.991Z,999.3
2019-01-28T13:35:02.099Z,999.2
2019-01-28T13:40:01.602Z,999.3
2019-01-28T13:45:01.585Z,999.7
2019-01-28T13:50:01.597Z,999.7
2019-01-28T13:55:01.855Z,999.8
2019-01-28T14:00:01.903Z,999.9
2019-01-28T14:05:01.882Z,999.9
2019-01-28T14:10:01.668Z,1000
2019-01-28T14:15:02.049Z,1000
2019-01-28T14:20:01.821Z,1000
2019-01-28T14:25:23.239Z,1000.1
2019-01-28T14:30:01.518Z,1000.2
2019-01-28T14:35:01.942Z,1000.2
2019-01-28T14:40:16.720Z,1000.5
2019-01-28T14:45:01.642Z,1000.7
2019-01-28T14:50:01.579Z,1000.9
2019-01-28T14:55:01.575Z,1000.8
2019-01-28T15:00:01.616Z,1000.8
2019-01-28T15:55:09.044Z,1001.7
2019-01-28T16:00:06.903Z,1001.7
2019-01-28T16:05:06.972Z,1001.8
2019-01-28T16:10:06.224Z,1001.9
2019-01-28T16:15:06.295Z,1002
2019-01-28T16:20:06.528Z,1002.1
2019-01-28T16:25:06.212Z,1002.1
2019-01-28T16:30:06.376Z,1002.3
2019-01-28T16:35:05.938Z,1002.4
2019-01-28T16:40:06.024Z,1002.5
2019-01-28T16:45:05.971Z,1002.7
2019-01-28T16:50:06.148Z,1002.7
2019-01-28T16:55:05.885Z,1002.7
2019-01-28T17:00:06.548Z,1002.8
2019-01-28T17:05:06.191Z,1002.9
2019-01-28T17:10:06.067Z,1003
2019-01-28T17:15:05.918Z,1003.1
2019-01-28T17:20:05.892Z,1003.2
2019-01-28T17:25:06.175Z,1003.3
2019-01-28T17:30:06.198Z,1003.3
2019-01-28T17:35:06.109Z,1003.4
2019-01-28T17:40:05.953Z,1003.5
2019-01-28T17:45:06.219Z,1003.5
2019-01-28T17:50:06.058Z,1003.6
2019-01-28T17:55:05.815Z,1003.6
2019-01-28T18:00:05.821Z,1003.7
2019-01-28T18:05:06.008Z,1003.7
2019-01-28T18:10:05.936Z,1003.7
2019-01-28T18:15:05.782Z,1003.8
2019-01-28T18:20:06.140Z,1003.9
2019-01-28T18:25:05.743Z,1004
2019-01-28T18:30:05.934Z,1004.1
2019-01-28T18:35:05.783Z,1004.2
2019-01-28T18:40:06.446Z,1004.3
2019-01-28T18:45:05.831Z,1004.3
2019-01-28T18:50:05.852Z,1004.4
2019-01-28T18:55:06.049Z,1004.5
2019-01-28T19:00:05.984Z,1004.5
2019-01-28T19:05:05.965Z,1004.6
2019-01-28T19:10:06.021Z,1004.7
2019-01-28T19:15:05.705Z,1004.7
2019-01-28T19:20:05.781Z,1004.8
2019-01-28T19:25:06.000Z,1004.7
2019-01-28T19:30:05.723Z,1004.8
2019-01-28T19:35:05.757Z,1004.9
2019-01-28T19:40:05.970Z,1005
2019-01-28T19:45:05.977Z,1005.1
2019-01-28T19:50:05.697Z,1005.1
2019-01-28T19:55:05.929Z,1005
2019-01-28T20:00:05.638Z,1005.1
2019-01-28T20:05:05.930Z,1005
2019-01-28T20:10:05.706Z,1005.1
2019-01-28T20:15:05.653Z,1005.2
2019-01-28T20:20:05.929Z,1005.2
2019-01-28T20:25:05.849Z,1005.3
2019-01-28T20:30:05.603Z,1005.4
2019-01-28T20:35:05.946Z,1005.4
2019-01-28T20:40:05.917Z,1005.5
2019-01-28T20:45:05.637Z,1005.5
2019-01-28T20:50:05.728Z,1005.5
2019-01-28T20:55:05.661Z,1005.5
2019-01-28T21:00:05.881Z,1005.5
2019-01-28T21:05:05.808Z,1005.6
2019-01-28T21:10:05.638Z,1005.6
2019-01-28T21:15:05.853Z,1005.6
2019-01-28T21:20:05.824Z,1005.6
2019-01-28T21:25:05.760Z,1005.5
2019-01-28T21:30:05.652Z,1005.6
2019-01-28T21:35:05.883Z,1005.7
2019-01-28T21:40:05.898Z,1005.7
2019-01-28T21:45:05.736Z,1005.7
2019-01-28T21:50:05.535Z,1005.8
2019-01-28T21:55:05.721Z,1005.9
2019-01-28T22:00:05.515Z,1005.9
2019-01-28T22:05:05.418Z,1005.9
2019-01-28T22:10:05.559Z,1005.9
2019-01-28T22:15:05.522Z,1005.9
2019-01-28T22:20:05.544Z,1006
2019-01-28T22:25:05.739Z,1006.1
2019-01-28T22:30:05.745Z,1006.1
2019-01-28T22:35:05.777Z,1006.2
2019-01-28T22:40:05.407Z,1006.2
2019-01-28T22:45:05.511Z,1006.3
2019-01-28T22:50:05.612Z,1006.3
2019-01-28T22:55:05.434Z,1006.3
2019-01-28T23:00:05.487Z,1006.4
2019-01-28T23:05:05.342Z,1006.5
2019-01-28T23:10:05.726Z,1006.6
2019-01-28T23:15:05.608Z,1006.7
2019-01-28T23:20:05.689Z,1006.7
2019-01-28T23:25:05.651Z,1006.6
2019-01-28T23:30:05.555Z,1006.6
2019-01-28T23:35:05.593Z,1006.6
2019-01-28T23:40:05.344Z,1006.6
2019-01-28T23:45:05.277Z,1006.6
2019-01-28T23:50:05.412Z,1006.5
2019-01-28T23:55:05.691Z,1006.5
